< < Back
Terminal Aerodrome Forecast


Current Version              Previous Versions:   1  2  3  4  5  6  7  8  9  

Terminal Aerodrome Forecast

187
FTUS42 KTAE 241700
TAFDHN
TAF
KDHN 241720Z 2418/2518 36005KT P6SM SKC=



Latest METAR

726
SAUS70 KWBC 241900 RRA
MTRDHN
METAR KDHN 241853Z 33008KT 300V360 10SM CLR 24/05 A3003 RMK AO2 SLP166
T02390050


USA.gov is the U.S. government's official web portal to all federal, state and local government web resources and services.